Arabia, OH

10:07 AM EDT on April 19, 2015 (GMT -0400)
RAWS | | Change Station
CLOSE
Current Station
Personal Weather Station
Location: Arabia, OH
Elevation: 993 ft
Nearby Weather Stations

Elev 993 ft 38.69 °N, 82.64 °W | Updated 55 minutes ago

Mostly Cloudy
Mostly Cloudy
67 °F
Feels Like 67 °F
N
6
Wind Variable Wind from ESE
Gusts 10.0 mph

Today
High -- | Low -- °F
--% Chance of Precip.
Yesterday
High -- | Low -- °F
Precip. -- in
6:49 AM 8:10 PM
New Moon, 1% visible
Pressure 29.85 in
Visibility 6.0 miles
Clouds Overcast 10000 ft
Dew Point 51 °F
Humidity 57%
Rainfall in
Snow Depth Not available.
UV 1 out of 12
Pollen 3.80 out of 12
Air Quality Not available.
Flu Activity Regional
METAR KHTS 191351Z 12005KT 6SM -RA OVC100 17/13 A2986 RMK AO2 RAB18 SLP107 P0000 T01720128

More Conditions Fewer Conditions

Pressure 29.85 in
Visibility 6.0 miles
Clouds Overcast 10000 ft
Dew Point 51 °F
Humidity 57%
Rainfall in
Snow Depth Not available.
UV 1 out of 12
Pollen 3.80 out of 12
Air Quality Not available.
Flu Activity Regional
METAR KHTS 191351Z 12005KT 6SM -RA OVC100 17/13 A2986 RMK AO2 RAB18 SLP107 P0000 T01720128

More Conditions Fewer Conditions

10-Day Weather Forecast

Almanac

Astronomy

Apr. 19, 2015 Rise Set
Actual Time
Civil Twilight
Nautical Twilight
Astronomical Twilight
Moon
Length of Visible Light
Length of Day
Tomorrow will be .
, % of the Moon is Illuminated

Today's Extremes

State Highs State Lows

Community

WunderPhotos

Upload Photos

1,814,800 photos uploaded!

WunderBlogs® & News

Nearby

Air Quality

  Air Quality AQ Index Pollutant
Not available.

Snow Depth

Station Depth Elevation

Earthquake Activity

City Distance Mag. Time & Date
Minimum magnitude displayed is 2.5.

Coastal Water Temperatures

Place Temperature

Stations

Nearby Weather Stations

Station Location Temp. Windchill Dew Point Humidity Wind Precip. Elev Updated Type